createdAt,value
2018-11-10T00:00:17.252Z,31.93
2018-11-10T00:02:48.801Z,30.97
2018-11-10T00:05:20.100Z,31.87
2018-11-10T00:07:50.503Z,31.00
2018-11-10T00:10:21.720Z,31.10
2018-11-10T00:12:52.131Z,30.50
2018-11-10T00:15:22.549Z,30.97
2018-11-10T00:17:52.921Z,29.67
2018-11-10T00:20:23.276Z,30.63
2018-11-10T00:22:53.696Z,30.47
2018-11-10T00:25:24.140Z,31.10
2018-11-10T00:27:54.510Z,30.63
2018-11-10T00:30:24.867Z,28.20
2018-11-10T00:32:55.137Z,28.17
2018-11-10T00:35:25.634Z,29.57
2018-11-10T00:37:55.900Z,27.43
2018-11-10T00:40:26.623Z,29.20
2018-11-10T00:42:57.305Z,28.77
2018-11-10T00:45:27.973Z,28.60
2018-11-10T00:47:58.378Z,27.30
2018-11-10T00:50:29.036Z,27.73
2018-11-10T00:52:59.573Z,26.73
2018-11-10T00:55:29.993Z,27.70
2018-11-10T00:58:00.506Z,29.30
2018-11-10T01:00:30.871Z,29.33
2018-11-10T01:03:01.464Z,32.67
2018-11-10T01:05:32.100Z,30.07
2018-11-10T01:08:02.525Z,27.87
2018-11-10T01:10:33.020Z,29.10
2018-11-10T01:13:03.573Z,28.50
2018-11-10T01:15:33.928Z,28.10
2018-11-10T01:18:04.352Z,29.03
2018-11-10T01:20:34.680Z,26.77
2018-11-10T01:23:05.047Z,29.10
2018-11-10T01:25:35.479Z,28.43
2018-11-10T01:28:05.984Z,30.23
2018-11-10T01:30:36.307Z,29.60
2018-11-10T01:33:06.738Z,28.87
2018-11-10T01:35:37.093Z,27.87
2018-11-10T01:38:07.675Z,27.57
2018-11-10T01:40:38.196Z,27.50
2018-11-10T01:43:08.671Z,28.83
2018-11-10T01:45:39.338Z,26.90
2018-11-10T01:48:09.930Z,27.07
2018-11-10T01:50:40.396Z,30.00
2018-11-10T01:53:10.780Z,27.40
2018-11-10T01:55:41.248Z,27.27
2018-11-10T01:58:11.530Z,27.40
2018-11-10T02:00:42.027Z,26.83
2018-11-10T02:03:12.541Z,27.90
2018-11-10T02:05:42.791Z,28.47
2018-11-10T02:08:13.963Z,28.33
2018-11-10T02:10:44.337Z,28.90
2018-11-10T02:13:14.691Z,26.70
2018-11-10T02:15:45.209Z,27.10
2018-11-10T02:18:15.616Z,27.20
2018-11-10T02:20:46.192Z,27.37
2018-11-10T02:23:16.615Z,26.57
2018-11-10T02:25:47.127Z,29.20
2018-11-10T02:28:17.620Z,25.77
2018-11-10T02:30:48.448Z,26.77
2018-11-10T02:33:19.002Z,27.17
2018-11-10T02:35:49.374Z,26.23
2018-11-10T02:38:19.869Z,24.90
2018-11-10T02:40:50.460Z,26.27
2018-11-10T02:43:20.824Z,28.73
2018-11-10T02:45:51.195Z,25.07
2018-11-10T02:48:21.670Z,25.57
2018-11-10T02:50:52.196Z,26.57
2018-11-10T02:53:22.660Z,25.37
2018-11-10T02:55:52.920Z,24.27
2018-11-10T02:58:23.183Z,24.43
2018-11-10T03:00:53.695Z,24.00
2018-11-10T03:03:24.251Z,25.30
2018-11-10T03:05:54.888Z,25.30
2018-11-10T03:08:25.352Z,24.63
2018-11-10T03:10:55.918Z,25.80
2018-11-10T03:13:26.310Z,25.07
2018-11-10T03:15:57.407Z,24.97
2018-11-10T03:18:27.800Z,25.70
2018-11-10T03:20:58.126Z,24.90
2018-11-10T03:23:28.628Z,24.30
2018-11-10T03:25:59.042Z,26.00
2018-11-10T03:28:29.519Z,24.37
2018-11-10T03:30:59.890Z,25.43
2018-11-10T03:33:30.474Z,24.83
2018-11-10T03:36:00.843Z,24.20
2018-11-10T03:38:31.211Z,25.60
2018-11-10T03:41:01.857Z,25.60
2018-11-10T03:43:32.183Z,24.50
2018-11-10T03:46:02.580Z,24.20
2018-11-10T03:48:33.095Z,25.73
2018-11-10T03:51:03.313Z,24.57
2018-11-10T03:53:33.816Z,23.27
2018-11-10T03:56:04.224Z,22.90
2018-11-10T03:58:34.684Z,24.90
2018-11-10T04:01:05.845Z,24.70
2018-11-10T04:03:36.469Z,24.73
2018-11-10T04:06:06.889Z,22.57
2018-11-10T04:08:37.211Z,25.10
2018-11-10T04:11:07.703Z,25.10
2018-11-10T04:13:38.256Z,24.97
2018-11-10T04:16:08.854Z,24.17
2018-11-10T04:18:39.748Z,25.47
2018-11-10T04:21:10.239Z,25.70
2018-11-10T04:23:40.791Z,24.30
2018-11-10T04:26:11.103Z,25.10
2018-11-10T04:28:41.620Z,24.90
2018-11-10T04:31:12.056Z,25.60
2018-11-10T04:33:42.581Z,25.17
2018-11-10T04:36:13.031Z,25.33
2018-11-10T04:38:43.628Z,24.90
2018-11-10T04:41:14.120Z,24.33
2018-11-10T04:43:44.594Z,24.80
2018-11-10T04:46:14.920Z,24.70
2018-11-10T04:48:45.356Z,23.60
2018-11-10T04:51:15.887Z,24.90
2018-11-10T04:53:46.891Z,23.83
2018-11-10T04:56:18.147Z,23.27
2018-11-10T04:58:48.396Z,21.70
2018-11-10T05:01:18.885Z,23.27
2018-11-10T05:03:49.465Z,21.20
2018-11-10T05:06:19.942Z,22.27
2018-11-10T05:08:50.325Z,22.03
2018-11-10T05:11:20.700Z,21.50
2018-11-10T05:13:51.079Z,20.37
2018-11-10T05:16:21.564Z,20.37
2018-11-10T05:18:51.940Z,19.80
2018-11-10T05:21:22.392Z,18.97
2018-11-10T05:23:52.595Z,20.80
2018-11-10T05:26:23.075Z,17.77
2018-11-10T05:28:53.563Z,19.13
2018-11-10T05:31:24.002Z,19.37
2018-11-10T05:33:54.427Z,19.97
2018-11-10T05:36:25.047Z,19.07
2018-11-10T05:38:55.604Z,18.27
2018-11-10T05:41:26.032Z,18.87
2018-11-10T05:43:56.327Z,18.27
2018-11-10T05:46:26.796Z,18.27
2018-11-10T05:48:57.191Z,17.90
2018-11-10T05:51:27.691Z,18.13
2018-11-10T05:53:58.097Z,17.07
2018-11-10T05:56:28.436Z,17.40
2018-11-10T05:58:58.907Z,18.20
2018-11-10T06:01:29.544Z,16.93
2018-11-10T06:04:00.114Z,15.77
2018-11-10T06:06:30.696Z,15.50
2018-11-10T06:09:01.204Z,15.80
2018-11-10T06:11:31.709Z,17.47
2018-11-10T06:14:02.023Z,15.57
2018-11-10T06:16:32.388Z,16.10
2018-11-10T06:19:02.859Z,16.23
2018-11-10T06:21:33.222Z,16.70
2018-11-10T06:24:03.532Z,16.60
2018-11-10T06:26:34.036Z,16.17
2018-11-10T06:29:04.528Z,16.03
2018-11-10T06:31:34.900Z,15.70
2018-11-10T06:34:05.417Z,15.60
2018-11-10T06:36:35.847Z,15.27
2018-11-10T06:39:08.822Z,16.30
2018-11-10T06:41:39.177Z,15.10
2018-11-10T06:44:10.069Z,14.87
2018-11-10T06:46:40.355Z,15.00
2018-11-10T06:49:10.606Z,14.60
2018-11-10T06:51:42.147Z,13.60
2018-11-10T06:54:13.632Z,14.00
2018-11-10T06:56:44.091Z,13.20
2018-11-10T06:59:14.604Z,13.50
2018-11-10T07:01:45.145Z,12.50
2018-11-10T07:04:15.465Z,11.70
2018-11-10T07:06:45.920Z,10.70
2018-11-10T07:09:16.356Z,13.10
2018-11-10T07:11:46.912Z,11.10
2018-11-10T07:14:17.154Z,11.80
2018-11-10T07:16:47.672Z,10.20
2018-11-10T07:19:18.148Z,10.70
2018-11-10T07:21:48.621Z,10.10
2018-11-10T07:24:19.196Z,10.27
2018-11-10T07:26:50.188Z,10.47
2018-11-10T07:29:20.700Z,10.70
2018-11-10T07:31:51.081Z,10.43
2018-11-10T07:34:21.540Z,9.63
2018-11-10T07:36:52.108Z,10.60
2018-11-10T07:39:22.380Z,9.57
2018-11-10T07:41:52.792Z,9.37
2018-11-10T07:44:23.354Z,10.20
2018-11-10T07:46:53.934Z,11.20
2018-11-10T07:49:24.385Z,9.63
2018-11-10T07:51:54.802Z,9.50
2018-11-10T07:54:25.216Z,9.30
2018-11-10T07:56:55.654Z,10.10
2018-11-10T07:59:25.955Z,10.90
2018-11-10T08:01:56.335Z,10.30
2018-11-10T08:04:26.725Z,10.60
2018-11-10T08:06:57.191Z,9.83
2018-11-10T08:09:27.683Z,10.13
2018-11-10T08:11:58.181Z,9.07
2018-11-10T08:14:28.651Z,9.77
2018-11-10T08:16:58.915Z,10.63
2018-11-10T08:19:29.283Z,10.17
2018-11-10T08:22:00.103Z,9.97
2018-11-10T08:24:30.448Z,9.20
2018-11-10T08:27:01.114Z,9.73
2018-11-10T08:29:31.435Z,9.37
2018-11-10T08:32:01.725Z,8.97
2018-11-10T08:34:32.163Z,8.20
2018-11-10T08:37:02.579Z,7.87
2018-11-10T08:39:32.947Z,7.63
2018-11-10T08:42:03.409Z,7.33
2018-11-10T08:44:33.704Z,7.40
2018-11-10T08:47:04.210Z,7.60
2018-11-10T08:49:34.708Z,8.70
2018-11-10T08:52:05.371Z,7.60
2018-11-10T08:54:35.823Z,7.33
2018-11-10T08:57:06.445Z,6.90
2018-11-10T08:59:37.402Z,7.07
2018-11-10T09:02:07.819Z,7.57
2018-11-10T09:04:38.263Z,7.70
2018-11-10T09:07:08.570Z,8.33
2018-11-10T09:09:39.039Z,7.13
2018-11-10T09:12:10.595Z,7.83
2018-11-10T09:14:41.039Z,7.97
2018-11-10T09:17:11.387Z,8.70
2018-11-10T09:19:41.919Z,9.53
2018-11-10T09:22:12.347Z,7.63
2018-11-10T09:24:42.647Z,8.70
2018-11-10T09:27:13.088Z,9.47
2018-11-10T09:29:43.477Z,9.37
2018-11-10T09:32:13.864Z,8.57
2018-11-10T09:34:44.290Z,9.73
2018-11-10T09:37:14.838Z,9.30
2018-11-10T09:39:45.337Z,8.70
2018-11-10T09:42:15.914Z,8.53
2018-11-10T09:44:46.273Z,8.97
2018-11-10T09:47:16.653Z,9.40
2018-11-10T09:49:47.127Z,9.63
2018-11-10T09:52:17.645Z,10.10
2018-11-10T09:54:47.935Z,10.50
2018-11-10T09:57:18.373Z,10.80
2018-11-10T09:59:48.920Z,10.40
2018-11-10T10:02:19.894Z,10.40
2018-11-10T10:04:50.065Z,10.97
2018-11-10T10:07:20.393Z,11.13
2018-11-10T10:09:50.828Z,11.70
2018-11-10T10:12:21.560Z,11.13
2018-11-10T10:14:51.901Z,11.13
2018-11-10T10:17:22.372Z,9.93
2018-11-10T10:19:52.628Z,11.57
2018-11-10T10:22:22.992Z,10.97
2018-11-10T10:24:53.403Z,11.60
2018-11-10T10:27:23.891Z,10.97
2018-11-10T10:29:54.124Z,11.77
2018-11-10T10:32:24.635Z,11.13
2018-11-10T10:34:55.312Z,11.40
2018-11-10T10:37:26.216Z,10.40
2018-11-10T10:39:56.610Z,11.80
2018-11-10T10:42:27.033Z,11.23
2018-11-10T10:44:57.244Z,11.43
2018-11-10T10:47:27.742Z,11.50
2018-11-10T10:49:58.095Z,11.47
2018-11-10T10:52:28.519Z,12.30
2018-11-10T10:54:59.613Z,12.50
2018-11-10T10:57:29.973Z,13.07
2018-11-10T11:00:01.219Z,11.80
2018-11-10T11:02:36.943Z,13.00
2018-11-10T11:05:12.691Z,12.90
2018-11-10T11:07:43.144Z,12.80
2018-11-10T11:10:13.672Z,12.77
2018-11-10T11:12:44.095Z,12.30
2018-11-10T11:15:14.592Z,12.60
2018-11-10T11:17:45.071Z,11.23
2018-11-10T11:20:15.519Z,11.97
2018-11-10T11:22:46.022Z,10.93
2018-11-10T11:25:16.622Z,12.80
2018-11-10T11:27:47.129Z,12.50
2018-11-10T11:30:17.371Z,11.50
2018-11-10T11:32:47.822Z,12.00
2018-11-10T11:35:18.433Z,12.13
2018-11-10T11:37:48.887Z,11.13
2018-11-10T11:40:19.304Z,12.20
2018-11-10T11:42:49.687Z,11.70
2018-11-10T11:45:20.234Z,11.80
2018-11-10T11:47:50.716Z,12.43
2018-11-10T11:50:21.214Z,12.10
2018-11-10T11:52:51.727Z,13.13
2018-11-10T11:55:22.219Z,11.53
2018-11-10T11:58:16.256Z,12.37
2018-11-10T12:00:46.516Z,13.50
2018-11-10T12:03:16.866Z,13.20
2018-11-10T12:05:47.500Z,12.73
2018-11-10T12:08:18.068Z,11.50
2018-11-10T12:10:48.682Z,12.60
2018-11-10T12:13:19.076Z,11.00
2018-11-10T12:15:49.470Z,11.13
2018-11-10T12:18:19.911Z,11.90
2018-11-10T12:20:50.458Z,12.30
2018-11-10T12:23:20.913Z,11.37
2018-11-10T12:25:51.485Z,12.13
2018-11-10T12:28:21.955Z,12.50
2018-11-10T12:30:52.313Z,12.50
2018-11-10T12:33:22.733Z,11.10
2018-11-10T12:35:53.462Z,11.53
2018-11-10T12:38:23.895Z,10.87
2018-11-10T12:40:54.401Z,12.53
2018-11-10T12:43:25.553Z,11.03
2018-11-10T12:45:56.023Z,11.63
2018-11-10T12:48:26.422Z,11.90
2018-11-10T12:50:56.920Z,12.50
2018-11-10T12:53:27.284Z,11.03
2018-11-10T12:55:57.787Z,11.37
2018-11-10T12:58:28.987Z,11.27
2018-11-10T13:00:59.323Z,11.43
2018-11-10T13:03:29.916Z,11.73
2018-11-10T13:06:00.628Z,12.33
2018-11-10T13:08:30.914Z,12.30
2018-11-10T13:11:01.316Z,12.07
2018-11-10T13:13:31.644Z,11.53
2018-11-10T13:16:02.021Z,12.70
2018-11-10T13:18:32.671Z,11.77
2018-11-10T13:21:03.064Z,11.67
2018-11-10T13:23:33.479Z,11.90
2018-11-10T13:26:03.967Z,13.07
2018-11-10T13:28:34.312Z,11.70
2018-11-10T13:31:05.008Z,11.80
2018-11-10T13:33:35.402Z,13.30
2018-11-10T13:36:06.018Z,13.10
2018-11-10T13:38:36.389Z,12.00
2018-11-10T13:41:06.763Z,12.67
2018-11-10T13:43:37.182Z,12.07
2018-11-10T13:46:07.686Z,14.70
2018-11-10T13:48:38.171Z,11.90
2018-11-10T13:51:08.807Z,12.57
2018-11-10T13:53:38.711Z,12.63
2018-11-10T13:56:09.199Z,12.73
2018-11-10T13:58:39.716Z,11.27
2018-11-10T14:01:10.203Z,12.00
2018-11-10T14:03:40.593Z,12.53
2018-11-10T14:06:11.120Z,11.47
2018-11-10T14:08:41.548Z,11.30
2018-11-10T14:11:13.189Z,11.60
2018-11-10T14:13:43.636Z,10.43
2018-11-10T14:16:14.191Z,11.40
2018-11-10T14:18:44.518Z,9.67
2018-11-10T14:21:14.904Z,9.17
2018-11-10T14:23:46.237Z,9.43
2018-11-10T14:26:16.689Z,8.73
2018-11-10T14:28:47.022Z,8.80
2018-11-10T14:31:17.517Z,9.40
2018-11-10T14:33:48.020Z,9.37
2018-11-10T14:36:18.532Z,8.67
2018-11-10T14:38:48.847Z,7.70
2018-11-10T14:41:19.424Z,8.47
2018-11-10T14:43:49.815Z,8.50
2018-11-10T14:46:20.179Z,8.73
2018-11-10T14:48:50.411Z,8.93
2018-11-10T14:51:20.968Z,8.50
2018-11-10T14:53:51.360Z,9.50
2018-11-10T14:56:21.931Z,8.30
2018-11-10T14:58:52.307Z,8.20
2018-11-10T15:01:22.668Z,8.23
2018-11-10T15:03:53.051Z,8.80
2018-11-10T15:06:23.689Z,8.73
2018-11-10T15:08:54.141Z,8.10
2018-11-10T15:11:25.158Z,7.80
2018-11-10T15:13:55.613Z,8.00
2018-11-10T15:16:25.845Z,7.80
2018-11-10T15:18:56.271Z,8.50
2018-11-10T15:21:27.119Z,8.83
2018-11-10T15:23:57.602Z,7.83
2018-11-10T15:26:28.148Z,7.20
2018-11-10T15:28:58.579Z,8.40
2018-11-10T15:31:28.973Z,8.37
2018-11-10T15:33:59.341Z,7.50
2018-11-10T15:36:29.976Z,7.80
2018-11-10T15:39:00.583Z,7.70
2018-11-10T15:41:31.098Z,8.77
2018-11-10T15:44:01.524Z,7.70
2018-11-10T15:46:31.938Z,8.63
2018-11-10T15:49:02.251Z,8.30
2018-11-10T15:51:32.637Z,8.80
2018-11-10T15:54:02.816Z,8.57
2018-11-10T15:56:33.128Z,9.30
2018-11-10T15:59:03.574Z,8.53
2018-11-10T16:01:34.118Z,8.50
2018-11-10T16:04:04.558Z,8.53
2018-11-10T16:06:35.832Z,7.90
2018-11-10T16:09:09.428Z,7.50
2018-11-10T16:11:40.141Z,7.40
2018-11-10T16:14:10.612Z,7.73
2018-11-10T16:16:41.079Z,8.53
2018-11-10T16:19:11.556Z,7.80
2018-11-10T16:21:41.949Z,8.03
2018-11-10T16:24:12.295Z,7.73
2018-11-10T16:26:42.695Z,8.00
2018-11-10T16:29:13.182Z,7.83
2018-11-10T16:31:44.276Z,8.60
2018-11-10T16:34:14.814Z,7.53
2018-11-10T16:36:45.151Z,7.40
2018-11-10T16:39:15.481Z,6.93
2018-11-10T16:41:45.894Z,7.00
2018-11-10T16:44:16.343Z,7.00
2018-11-10T16:46:46.736Z,7.97
2018-11-10T16:49:18.031Z,7.40
2018-11-10T16:51:48.556Z,7.30
2018-11-10T16:54:18.997Z,7.73
2018-11-10T16:56:49.616Z,7.63
2018-11-10T16:59:20.188Z,7.77
2018-11-10T17:01:50.776Z,8.10
2018-11-10T17:04:21.347Z,8.27
2018-11-10T17:06:51.737Z,7.80
2018-11-10T17:09:22.008Z,6.70
2018-11-10T17:11:52.464Z,8.10
2018-11-10T17:14:22.994Z,7.40
2018-11-10T17:16:53.472Z,7.53
2018-11-10T17:19:24.035Z,8.53
2018-11-10T17:21:54.390Z,9.40
2018-11-10T17:24:24.553Z,9.00
2018-11-10T17:26:54.880Z,8.97
2018-11-10T17:29:25.114Z,8.93
2018-11-10T17:31:55.595Z,8.83
2018-11-10T17:34:26.003Z,9.57
2018-11-10T17:36:56.584Z,8.77
2018-11-10T17:39:27.016Z,8.90
2018-11-10T17:41:57.372Z,9.23
2018-11-10T17:44:28.491Z,9.60
2018-11-10T17:46:59.162Z,9.50
2018-11-10T17:49:29.633Z,7.90
2018-11-10T17:52:00.269Z,8.10
2018-11-10T17:54:30.560Z,9.03
2018-11-10T17:57:00.853Z,7.93
2018-11-10T17:59:31.479Z,8.00
2018-11-10T18:02:02.061Z,7.43
2018-11-10T18:04:32.824Z,7.07
2018-11-10T18:07:04.067Z,7.83
2018-11-10T18:09:34.480Z,7.17
2018-11-10T18:12:05.263Z,7.47
2018-11-10T18:14:35.807Z,6.77
2018-11-10T18:17:06.181Z,8.30
2018-11-10T18:19:36.732Z,7.87
2018-11-10T18:22:07.221Z,8.13
2018-11-10T18:24:37.730Z,7.90
2018-11-10T18:27:08.284Z,8.23
2018-11-10T18:29:39.653Z,8.10
2018-11-10T18:32:10.180Z,6.63
2018-11-10T18:34:40.732Z,7.83
2018-11-10T18:37:11.220Z,8.50
2018-11-10T18:39:41.816Z,7.80
2018-11-10T18:42:12.599Z,6.90
2018-11-10T18:44:42.987Z,7.37
2018-11-10T18:47:13.489Z,7.37
2018-11-10T18:49:44.032Z,7.60
2018-11-10T18:52:14.591Z,7.13
2018-11-10T18:54:45.177Z,8.10
2018-11-10T18:57:15.701Z,7.60
2018-11-10T18:59:46.052Z,8.00
2018-11-10T19:02:16.510Z,9.50
2018-11-10T19:04:47.151Z,8.63
2018-11-10T19:07:17.610Z,9.17
2018-11-10T19:09:48.128Z,8.43
2018-11-10T19:12:18.617Z,8.50
2018-11-10T19:14:48.987Z,7.80
2018-11-10T19:17:19.364Z,8.47
2018-11-10T19:19:49.753Z,7.70
2018-11-10T19:22:20.932Z,7.23
2018-11-10T19:24:51.416Z,8.80
2018-11-10T19:27:21.828Z,7.70
2018-11-10T19:29:52.373Z,8.37
2018-11-10T19:32:22.723Z,7.37
2018-11-10T19:34:53.131Z,10.73
2018-11-10T19:37:23.612Z,9.03
2018-11-10T19:39:54.618Z,8.50
2018-11-10T19:42:25.001Z,8.50
2018-11-10T19:44:56.971Z,8.10
2018-11-10T19:47:27.300Z,9.30
2018-11-10T19:49:57.881Z,9.60
2018-11-10T19:52:28.345Z,9.00
2018-11-10T19:54:58.862Z,9.27
2018-11-10T19:57:29.529Z,9.87
2018-11-10T19:59:59.769Z,9.40
2018-11-10T20:02:30.308Z,8.33
2018-11-10T20:05:00.775Z,10.07
2018-11-10T20:07:31.319Z,9.13
2018-11-10T20:10:01.887Z,8.97
2018-11-10T20:12:32.331Z,10.70
2018-11-10T20:15:02.715Z,10.20
2018-11-10T20:17:33.092Z,10.50
2018-11-10T20:20:03.659Z,12.13
2018-11-10T20:22:34.582Z,10.23
2018-11-10T20:25:05.506Z,11.40
2018-11-10T20:27:35.935Z,11.07
2018-11-10T20:30:09.149Z,9.47
2018-11-10T20:32:39.682Z,10.60
2018-11-10T20:35:11.420Z,9.73
2018-11-10T20:37:42.729Z,10.40
2018-11-10T20:40:14.422Z,10.70
2018-11-10T20:42:44.855Z,11.20
2018-11-10T20:45:18.410Z,10.43
2018-11-10T20:47:49.516Z,10.90
2018-11-10T20:50:20.336Z,10.30
2018-11-10T20:52:50.844Z,11.10
2018-11-10T20:55:21.382Z,11.23
2018-11-10T20:57:51.957Z,12.03
2018-11-10T21:00:23.178Z,11.70
2018-11-10T21:02:53.443Z,10.50
2018-11-10T21:05:23.997Z,10.27
2018-11-10T21:07:54.487Z,11.13
2018-11-10T21:10:25.067Z,10.60
2018-11-10T21:12:55.704Z,10.43
2018-11-10T21:15:26.321Z,11.00
2018-11-10T21:17:56.927Z,10.80
2018-11-10T21:20:27.300Z,9.83
2018-11-10T21:22:58.417Z,11.10
2018-11-10T21:25:28.891Z,10.90
2018-11-10T21:27:59.398Z,9.70
2018-11-10T21:30:30.302Z,10.40
2018-11-10T21:33:00.877Z,10.43
2018-11-10T21:35:31.364Z,10.10
2018-11-10T21:38:01.782Z,10.77
2018-11-10T21:40:33.134Z,9.67
2018-11-10T21:43:03.515Z,9.63
2018-11-10T21:45:34.071Z,9.53
2018-11-10T21:48:04.623Z,9.37
2018-11-10T21:50:35.110Z,9.10
2018-11-10T21:53:05.822Z,9.60
2018-11-10T21:55:36.300Z,9.63
2018-11-10T21:58:06.880Z,9.70
2018-11-10T22:00:37.307Z,9.30
2018-11-10T22:03:07.769Z,8.23
2018-11-10T22:05:38.301Z,8.13
2018-11-10T22:08:08.857Z,8.07
2018-11-10T22:10:39.501Z,8.47
2018-11-10T22:13:09.900Z,8.20
2018-11-10T22:15:40.517Z,8.60
2018-11-10T22:18:10.879Z,7.63
2018-11-10T22:20:41.382Z,8.80
2018-11-10T22:23:11.873Z,7.97
2018-11-10T22:25:42.508Z,7.50
2018-11-10T22:28:13.092Z,8.40
2018-11-10T22:30:43.822Z,7.70
2018-11-10T22:33:14.378Z,8.67
2018-11-10T22:35:45.023Z,8.13
2018-11-10T22:38:15.567Z,9.13
2018-11-10T22:40:46.197Z,8.03
2018-11-10T22:43:16.795Z,9.07
2018-11-10T22:45:47.163Z,8.77
2018-11-10T22:48:17.645Z,8.73
2018-11-10T22:50:48.212Z,9.40
2018-11-10T22:53:18.589Z,9.27
2018-11-10T22:55:49.187Z,8.70
2018-11-10T22:58:19.443Z,9.00
2018-11-10T23:00:55.107Z,8.53
2018-11-10T23:03:25.514Z,8.47
2018-11-10T23:05:56.004Z,8.97
2018-11-10T23:08:26.505Z,9.50
2018-11-10T23:10:57.203Z,9.10
2018-11-10T23:13:27.972Z,9.70
2018-11-10T23:15:58.392Z,9.40
2018-11-10T23:18:29.650Z,10.50
2018-11-10T23:21:00.924Z,9.33
2018-11-10T23:23:31.401Z,10.03
2018-11-10T23:26:01.922Z,9.23
2018-11-10T23:28:32.431Z,10.00
2018-11-10T23:31:03.197Z,8.93
2018-11-10T23:33:33.774Z,10.30
2018-11-10T23:36:04.357Z,10.17
2018-11-10T23:38:34.987Z,10.43
2018-11-10T23:41:05.442Z,11.33
2018-11-10T23:43:36.039Z,10.67
2018-11-10T23:46:06.859Z,11.13
2018-11-10T23:48:37.203Z,11.07
2018-11-10T23:51:08.031Z,12.37
2018-11-10T23:53:38.230Z,10.77
2018-11-10T23:56:08.826Z,11.70
2018-11-10T23:58:39.427Z,10.67
